TimeMST,TemperatureF,Dew PointF,Humidity,Sea Level PressureIn,VisibilityMPH,Wind Direction,Wind SpeedMPH,Gust SpeedMPH,PrecipitationIn,Events,Conditions,WindDirDegrees,DateUTC
12:53 AM,28.0,21.9,78,29.80,10.0,North,-9999.0,-,N/A,,Clear,0,2013-02-06 07:53:00
1:53 AM,25.0,19.9,81,29.80,10.0,Calm,Calm,-,N/A,,Clear,0,2013-02-06 08:53:00
2:53 AM,23.0,19.0,85,29.81,10.0,North,4.6,18.4,N/A,,Clear,360,2013-02-06 09:53:00
3:53 AM,24.1,19.0,81,29.81,10.0,NE,11.5,19.6,N/A,,Clear,50,2013-02-06 10:53:00
4:53 AM,25.0,19.0,78,29.85,10.0,NNW,12.7,21.9,N/A,,Clear,330,2013-02-06 11:53:00
5:53 AM,28.0,21.0,75,29.88,10.0,NNE,13.8,26.5,N/A,,Overcast,30,2013-02-06 12:53:00
6:18 AM,28.4,21.2,74,29.80,10.0,Calm,Calm,-,N/A,,Overcast,0,2013-02-06 13:18:00
6:53 AM,27.0,21.0,78,29.93,10.0,Variable,3.5,-,N/A,,Overcast,0,2013-02-06 13:53:00
7:45 AM,35.6,24.8,65,29.84,10.0,West,13.8,32.2,N/A,,Overcast,280,2013-02-06 14:45:00
7:53 AM,36.0,24.1,62,29.94,10.0,WNW,16.1,32.2,N/A,,Overcast,290,2013-02-06 14:53:00
8:53 AM,35.1,24.1,64,29.98,10.0,NW,12.7,34.5,N/A,,Overcast,310,2013-02-06 15:53:00
9:53 AM,36.0,26.1,67,30.00,10.0,NW,26.5,34.5,N/A,,Overcast,320,2013-02-06 16:53:00
10:53 AM,37.0,26.1,65,30.00,10.0,ENE,10.4,18.4,N/A,,Overcast,60,2013-02-06 17:53:00
11:14 AM,39.2,24.8,56,29.91,10.0,Variable,6.9,24.2,N/A,,Overcast,0,2013-02-06 18:14:00
11:53 AM,39.0,26.1,60,30.00,10.0,North,5.8,-,N/A,,Overcast,350,2013-02-06 18:53:00
12:53 PM,39.0,25.0,57,29.98,10.0,NNW,11.5,34.5,N/A,,Scattered Clouds,340,2013-02-06 19:53:00
1:53 PM,37.0,24.1,59,30.00,10.0,North,8.1,-,N/A,,Overcast,350,2013-02-06 20:53:00
2:53 PM,37.0,23.0,57,30.02,10.0,North,-9999.0,-,N/A,,Mostly Cloudy,0,2013-02-06 21:53:00
3:00 PM,39.2,21.2,49,29.90,25.0,SW,3.5,-,N/A,,Scattered Clouds,220,2013-02-06 22:00:00
3:53 PM,34.0,26.1,73,30.04,10.0,North,-9999.0,-,N/A,,Partly Cloudy,0,2013-02-06 22:53:00
3:59 PM,35.6,24.8,65,29.90,25.0,SSW,2.3,-,N/A,,Scattered Clouds,200,2013-02-06 22:59:00
4:53 PM,32.0,23.0,69,30.05,10.0,North,-9999.0,-,N/A,,Mostly Cloudy,0,2013-02-06 23:53:00
4:57 PM,37.4,21.2,52,29.94,25.0,WSW,4.6,-,N/A,,Mostly Cloudy,250,2013-02-06 23:57:00
5:53 PM,36.0,23.0,59,30.07,10.0,North,-9999.0,-,N/A,,Overcast,0,2013-02-07 00:53:00
5:55 PM,37.4,23.0,56,29.96,25.0,WNW,17.3,-,N/A,,Mostly Cloudy,290,2013-02-07 00:55:00
6:53 PM,34.0,23.0,64,30.07,10.0,North,-9999.0,-,N/A,,Scattered Clouds,0,2013-02-07 01:53:00
6:55 PM,35.6,23.0,60,29.98,25.0,West,11.5,-,N/A,,Mostly Cloudy,260,2013-02-07 01:55:00
7:53 PM,35.1,21.9,59,30.06,10.0,North,-9999.0,-,N/A,,Overcast,0,2013-02-07 02:53:00
8:09 PM,35.6,21.2,56,30.00,25.0,WSW,10.4,-,N/A,,Mostly Cloudy,250,2013-02-07 03:09:00
8:53 PM,35.1,21.0,57,30.08,10.0,North,-9999.0,-,N/A,,Mostly Cloudy,0,2013-02-07 03:53:00
9:01 PM,35.6,19.4,52,30.01,25.0,NW,2.3,-,N/A,,Mostly Cloudy,320,2013-02-07 04:01:00
9:53 PM,28.0,17.1,63,30.12,10.0,North,-9999.0,-,N/A,,Clear,0,2013-02-07 04:53:00
10:00 PM,33.8,15.8,48,30.02,25.0,West,4.6,-,N/A,,Scattered Clouds,260,2013-02-07 05:00:00
10:53 PM,28.0,16.0,61,30.12,10.0,North,-9999.0,-,N/A,,Clear,0,2013-02-07 05:53:00
11:53 PM,28.9,14.0,54,30.14,10.0,North,-9999.0,-,N/A,,Clear,0,2013-02-07 06:53:00